createdAt,value
2022-12-24T00:00:09.434Z,3.17
2022-12-24T00:02:36.612Z,2.65
2022-12-24T00:05:03.595Z,2.70
2022-12-24T00:07:31.132Z,2.42
2022-12-24T00:09:58.226Z,3.03
2022-12-24T00:12:24.767Z,2.67
2022-12-24T00:14:51.496Z,2.80
2022-12-24T00:17:18.026Z,2.95
2022-12-24T00:19:45.099Z,2.67
2022-12-24T00:22:11.714Z,3.08
2022-12-24T00:24:38.292Z,3.38
2022-12-24T00:27:05.937Z,2.72
2022-12-24T00:29:33.927Z,2.63
2022-12-24T00:32:00.878Z,2.20
2022-12-24T00:34:27.589Z,2.50
2022-12-24T00:36:54.190Z,2.90
2022-12-24T00:39:20.777Z,2.65
2022-12-24T00:41:47.376Z,3.08
2022-12-24T00:44:14.186Z,2.80
2022-12-24T00:46:42.081Z,3.20
2022-12-24T00:49:09.621Z,3.60
2022-12-24T00:51:37.123Z,3.60
2022-12-24T00:54:04.829Z,3.80
2022-12-24T00:56:31.950Z,3.30
2022-12-24T00:58:58.755Z,3.38
2022-12-24T01:01:26.205Z,3.10
2022-12-24T01:04:13.494Z,3.65
2022-12-24T01:06:40.453Z,3.70
2022-12-24T01:09:07.062Z,3.88
2022-12-24T01:11:33.702Z,3.63
2022-12-24T01:14:00.260Z,3.55
2022-12-24T01:16:26.946Z,4.20
2022-12-24T01:18:53.785Z,3.85
2022-12-24T01:21:20.805Z,3.28
2022-12-24T01:23:48.415Z,3.60
2022-12-24T01:26:15.090Z,3.90
2022-12-24T01:28:42.558Z,3.55
2022-12-24T01:31:19.936Z,4.13
2022-12-24T01:33:49.903Z,3.33
2022-12-24T01:36:16.772Z,3.85
2022-12-24T01:38:43.472Z,3.35
2022-12-24T01:41:37.513Z,3.30
2022-12-24T01:44:18.415Z,3.78
2022-12-24T01:46:46.291Z,3.38
2022-12-24T01:49:16.256Z,3.60
2022-12-24T01:51:47.086Z,3.40
2022-12-24T01:54:22.167Z,4.20
2022-12-24T01:57:05.422Z,3.20
2022-12-24T01:59:33.213Z,3.70
2022-12-24T02:02:02.235Z,4.57
2022-12-24T02:04:40.747Z,4.47
2022-12-24T02:07:07.405Z,3.67
2022-12-24T02:09:36.518Z,3.60
2022-12-24T02:12:05.266Z,4.40
2022-12-24T02:14:32.517Z,4.22
2022-12-24T02:17:14.955Z,3.67
2022-12-24T02:20:01.644Z,3.95
2022-12-24T02:22:40.929Z,3.75
2022-12-24T02:25:39.777Z,3.58
2022-12-24T02:28:20.890Z,3.47
2022-12-24T02:31:02.202Z,3.90
2022-12-24T02:33:31.177Z,3.67
2022-12-24T02:36:05.020Z,3.90
2022-12-24T02:38:34.360Z,3.45
2022-12-24T02:41:09.315Z,3.75
2022-12-24T02:43:39.588Z,3.40
2022-12-24T02:46:13.939Z,3.60
2022-12-24T02:48:43.651Z,4.05
2022-12-24T02:51:11.580Z,3.97
2022-12-24T02:53:38.531Z,4.43
2022-12-24T02:56:28.163Z,4.00
2022-12-24T02:59:13.558Z,3.47
2022-12-24T03:02:09.630Z,3.53
2022-12-24T03:05:07.768Z,3.40
2022-12-24T03:07:41.743Z,3.35
2022-12-24T03:10:37.830Z,3.63
2022-12-24T03:13:17.286Z,3.72
2022-12-24T03:15:46.812Z,3.78
2022-12-24T03:18:17.829Z,3.00
2022-12-24T03:20:48.953Z,3.63
2022-12-24T03:23:16.386Z,3.55
2022-12-24T03:25:44.536Z,2.97
2022-12-24T03:28:14.280Z,4.03
2022-12-24T03:30:43.398Z,3.70
2022-12-24T03:33:11.209Z,3.20
2022-12-24T03:35:37.849Z,3.65
2022-12-24T03:38:05.122Z,3.40
2022-12-24T03:40:31.777Z,3.10
2022-12-24T03:42:58.818Z,3.38
2022-12-24T03:45:25.970Z,3.38
2022-12-24T03:47:53.070Z,3.55
2022-12-24T03:50:19.667Z,3.63
2022-12-24T03:52:46.217Z,2.95
2022-12-24T03:55:13.267Z,3.22
2022-12-24T03:57:39.857Z,3.38
2022-12-24T04:00:07.244Z,3.65
2022-12-24T04:02:33.958Z,3.10
2022-12-24T04:05:00.624Z,2.85
2022-12-24T04:07:27.232Z,2.85
2022-12-24T04:09:54.273Z,4.05
2022-12-24T04:12:20.833Z,3.22
2022-12-24T04:14:47.929Z,2.75
2022-12-24T04:17:14.483Z,3.20
2022-12-24T04:19:41.038Z,2.47
2022-12-24T04:22:07.607Z,3.03
2022-12-24T04:24:34.203Z,2.45
2022-12-24T04:27:00.827Z,3.20
2022-12-24T04:29:27.408Z,3.22
2022-12-24T04:31:54.025Z,2.97
2022-12-24T04:34:21.096Z,2.70
2022-12-24T04:36:47.676Z,2.85
2022-12-24T04:39:14.727Z,3.20
2022-12-24T04:41:41.909Z,2.63
2022-12-24T04:44:09.846Z,2.60
2022-12-24T04:46:36.900Z,2.45
2022-12-24T04:49:03.499Z,2.70
2022-12-24T04:51:30.371Z,2.67
2022-12-24T04:53:57.825Z,2.55
2022-12-24T04:56:27.179Z,2.53
2022-12-24T04:58:54.181Z,2.42
2022-12-24T05:01:29.657Z,2.40
2022-12-24T05:03:56.757Z,2.28
2022-12-24T05:06:27.303Z,2.25
2022-12-24T05:08:56.267Z,2.80
2022-12-24T05:11:23.831Z,2.60
2022-12-24T05:13:51.344Z,2.30
2022-12-24T05:16:19.682Z,1.80
2022-12-24T05:18:47.103Z,2.40
2022-12-24T05:21:18.060Z,2.80
2022-12-24T05:24:03.465Z,2.03
2022-12-24T05:26:32.076Z,2.10
2022-12-24T05:28:59.892Z,2.00
2022-12-24T05:31:28.913Z,3.00
2022-12-24T05:33:55.787Z,2.05
2022-12-24T05:36:23.878Z,2.50
2022-12-24T05:38:50.709Z,2.65
2022-12-24T05:41:17.919Z,2.75
2022-12-24T05:43:44.673Z,2.53
2022-12-24T05:46:14.455Z,2.15
2022-12-24T05:48:41.724Z,2.55
2022-12-24T05:51:11.062Z,2.17
2022-12-24T05:53:38.184Z,2.00
2022-12-24T05:56:14.407Z,2.05
2022-12-24T05:58:42.586Z,2.53
2022-12-24T06:01:11.666Z,2.22
2022-12-24T06:03:39.245Z,1.98
2022-12-24T06:06:12.971Z,2.20
2022-12-24T06:08:41.444Z,2.40
2022-12-24T06:11:11.423Z,2.28
2022-12-24T06:13:39.915Z,1.90
2022-12-24T06:16:09.314Z,1.90
2022-12-24T06:18:37.120Z,2.28
2022-12-24T06:21:05.608Z,2.30
2022-12-24T06:23:35.437Z,2.22
2022-12-24T06:26:03.745Z,2.35
2022-12-24T06:28:32.745Z,2.17
2022-12-24T06:31:03.184Z,1.80
2022-12-24T06:33:31.990Z,2.15
2022-12-24T06:35:59.085Z,1.95
2022-12-24T06:38:26.561Z,2.22
2022-12-24T06:40:53.736Z,2.10
2022-12-24T06:43:20.876Z,2.10
2022-12-24T06:45:48.472Z,2.40
2022-12-24T06:48:16.251Z,2.22
2022-12-24T06:50:43.251Z,2.25
2022-12-24T06:53:10.635Z,2.10
2022-12-24T06:55:37.766Z,2.20
2022-12-24T06:58:05.040Z,2.05
2022-12-24T07:00:31.989Z,2.67
2022-12-24T07:02:58.779Z,2.35
2022-12-24T07:05:25.492Z,2.38
2022-12-24T07:07:52.574Z,2.25
2022-12-24T07:10:20.783Z,2.30
2022-12-24T07:12:48.429Z,2.38
2022-12-24T07:15:16.828Z,2.58
2022-12-24T07:17:44.035Z,2.30
2022-12-24T07:20:14.757Z,2.35
2022-12-24T07:22:41.975Z,2.13
2022-12-24T07:25:09.759Z,2.25
2022-12-24T07:27:36.755Z,2.25
2022-12-24T07:30:04.558Z,2.10
2022-12-24T07:32:31.658Z,1.83
2022-12-24T07:34:58.755Z,2.03
2022-12-24T07:37:25.882Z,2.33
2022-12-24T07:39:52.889Z,1.92
2022-12-24T07:42:19.444Z,2.20
2022-12-24T07:44:46.764Z,2.20
2022-12-24T07:47:13.577Z,2.35
2022-12-24T07:49:40.277Z,2.17
2022-12-24T07:52:06.879Z,1.98
2022-12-24T07:54:33.676Z,1.80
2022-12-24T07:57:00.486Z,2.13
2022-12-24T07:59:27.105Z,1.77
2022-12-24T08:01:53.877Z,2.45
2022-12-24T08:04:21.070Z,1.67
2022-12-24T08:06:48.584Z,1.80
2022-12-24T08:09:15.411Z,2.17
2022-12-24T08:11:46.302Z,2.13
2022-12-24T08:14:18.169Z,2.38
2022-12-24T08:16:44.804Z,2.17
2022-12-24T08:19:11.451Z,2.00
2022-12-24T08:21:38.514Z,2.17
2022-12-24T08:24:05.323Z,2.30
2022-12-24T08:26:32.523Z,2.25
2022-12-24T08:28:59.139Z,2.35
2022-12-24T08:31:25.779Z,2.00
2022-12-24T08:33:52.844Z,1.90
2022-12-24T08:36:19.959Z,2.08
2022-12-24T08:38:46.519Z,1.80
2022-12-24T08:41:13.084Z,1.95
2022-12-24T08:43:39.760Z,2.00
2022-12-24T08:46:06.748Z,1.67
2022-12-24T08:48:35.158Z,1.55
2022-12-24T08:51:07.517Z,1.77
2022-12-24T08:53:34.573Z,2.00
2022-12-24T08:56:03.039Z,1.73
2022-12-24T08:58:30.278Z,1.85
2022-12-24T09:00:57.002Z,1.83
2022-12-24T09:03:27.494Z,2.00
2022-12-24T09:05:54.655Z,1.88
2022-12-24T09:08:21.447Z,1.60
2022-12-24T09:10:48.582Z,1.52
2022-12-24T09:13:15.137Z,3.17
2022-12-24T09:15:41.661Z,10.73
2022-12-24T09:18:08.213Z,7.10
2022-12-24T09:20:34.788Z,5.28
2022-12-24T09:23:01.449Z,5.07
2022-12-24T09:25:28.569Z,4.45
2022-12-24T09:27:55.131Z,4.07
2022-12-24T09:30:22.930Z,4.95
2022-12-24T09:32:51.621Z,4.05
2022-12-24T09:35:18.307Z,4.53
2022-12-24T09:37:44.867Z,4.07
2022-12-24T09:40:25.557Z,3.83
2022-12-24T09:42:54.253Z,4.55
2022-12-24T09:45:32.615Z,3.97
2022-12-24T09:48:04.456Z,3.85
2022-12-24T09:50:42.552Z,3.95
2022-12-24T09:53:24.400Z,3.45
2022-12-24T09:55:54.576Z,3.10
2022-12-24T09:58:31.299Z,3.92
2022-12-24T10:00:57.986Z,3.95
2022-12-24T10:03:24.881Z,3.30
2022-12-24T10:05:56.289Z,3.08
2022-12-24T10:08:46.200Z,3.33
2022-12-24T10:11:23.488Z,3.75
2022-12-24T10:14:19.230Z,3.38
2022-12-24T10:17:23.491Z,3.50
2022-12-24T10:20:31.785Z,2.25
2022-12-24T10:23:06.499Z,2.58
2022-12-24T10:26:02.164Z,3.15
2022-12-24T10:28:36.360Z,2.83
2022-12-24T10:31:07.664Z,2.70
2022-12-24T10:33:40.039Z,2.65
2022-12-24T10:36:13.026Z,2.83
2022-12-24T10:38:39.689Z,3.13
2022-12-24T10:41:08.445Z,2.80
2022-12-24T10:43:38.348Z,2.63
2022-12-24T10:46:10.267Z,3.55
2022-12-24T10:48:50.745Z,2.90
2022-12-24T10:51:31.027Z,2.33
2022-12-24T10:54:01.219Z,3.30
2022-12-24T10:56:27.795Z,2.35
2022-12-24T10:58:55.422Z,2.67
2022-12-24T11:01:46.767Z,2.50
2022-12-24T11:04:25.376Z,2.30
2022-12-24T11:07:04.018Z,2.45
2022-12-24T11:09:32.185Z,2.40
2022-12-24T11:12:05.203Z,2.10
2022-12-24T11:14:36.298Z,2.47
2022-12-24T11:17:03.044Z,2.20
2022-12-24T11:19:35.699Z,2.10
2022-12-24T11:22:05.781Z,2.35
2022-12-24T11:24:38.461Z,2.17
2022-12-24T11:27:41.059Z,2.17
2022-12-24T11:30:13.602Z,2.40
2022-12-24T11:32:40.153Z,2.28
2022-12-24T11:35:08.123Z,2.22
2022-12-24T11:37:35.122Z,2.08
2022-12-24T11:40:03.073Z,2.33
2022-12-24T11:42:30.141Z,2.35
2022-12-24T11:44:59.684Z,2.15
2022-12-24T11:47:38.714Z,1.85
2022-12-24T11:50:26.351Z,1.95
2022-12-24T11:52:57.508Z,2.53
2022-12-24T11:55:56.325Z,2.25
2022-12-24T11:58:33.021Z,1.83
2022-12-24T12:01:15.412Z,1.80
2022-12-24T12:03:48.731Z,2.35
2022-12-24T12:06:32.672Z,2.15
2022-12-24T12:09:07.284Z,1.90
2022-12-24T12:11:35.747Z,2.05
2022-12-24T12:14:04.124Z,2.17
2022-12-24T12:17:06.712Z,1.92
2022-12-24T12:19:50.053Z,1.88
2022-12-24T12:22:47.729Z,2.08
2022-12-24T12:25:58.735Z,1.98
2022-12-24T12:28:40.615Z,1.85
2022-12-24T12:35:23.724Z,1.67
2022-12-24T12:37:58.242Z,1.83
2022-12-24T12:40:47.393Z,1.70
2022-12-24T12:43:25.928Z,1.70
2022-12-24T12:46:06.843Z,1.67
2022-12-24T12:48:44.207Z,1.80
2022-12-24T12:51:29.170Z,1.90
2022-12-24T12:54:33.891Z,1.52
2022-12-24T12:57:08.017Z,1.60
2022-12-24T12:59:44.890Z,1.70
2022-12-24T13:02:29.779Z,1.45
2022-12-24T13:05:30.034Z,1.70
2022-12-24T13:08:24.773Z,1.90
2022-12-24T13:11:00.578Z,1.48
2022-12-24T13:16:29.911Z,1.60
2022-12-24T13:19:38.585Z,1.67
2022-12-24T13:22:13.747Z,1.80
2022-12-24T13:24:40.514Z,1.58
2022-12-24T13:27:18.708Z,1.90
2022-12-24T13:30:09.662Z,1.60
2022-12-24T13:32:47.380Z,1.88
2022-12-24T13:35:19.600Z,1.90
2022-12-24T13:37:48.021Z,1.75
2022-12-24T13:40:23.157Z,1.42
2022-12-24T13:43:04.707Z,1.50
2022-12-24T13:45:34.636Z,1.40
2022-12-24T13:48:03.085Z,1.30
2022-12-24T13:50:35.704Z,1.65
2022-12-24T13:53:03.154Z,1.45
2022-12-24T13:55:30.243Z,1.58
2022-12-24T13:58:01.677Z,1.48
2022-12-24T14:00:31.432Z,1.52
2022-12-24T14:03:07.793Z,1.42
2022-12-24T14:05:48.929Z,1.48
2022-12-24T14:08:24.273Z,1.50
2022-12-24T14:11:00.388Z,1.58
2022-12-24T14:13:39.023Z,2.22
2022-12-24T14:16:14.903Z,2.38
2022-12-24T14:19:04.044Z,2.38
2022-12-24T14:21:36.600Z,2.35
2022-12-24T14:24:12.159Z,2.75
2022-12-24T14:26:47.841Z,2.35
2022-12-24T14:29:28.220Z,2.40
2022-12-24T14:31:57.164Z,2.03
2022-12-24T14:34:24.010Z,1.88
2022-12-24T14:36:54.796Z,1.92
2022-12-24T14:39:30.979Z,2.22
2022-12-24T14:42:41.440Z,1.73
2022-12-24T14:45:24.237Z,1.92
2022-12-24T14:48:12.447Z,1.83
2022-12-24T14:51:03.818Z,1.88
2022-12-24T14:54:10.867Z,2.35
2022-12-24T14:56:37.432Z,1.67
2022-12-24T14:59:16.319Z,1.73
2022-12-24T15:01:43.242Z,1.90
2022-12-24T15:04:09.891Z,1.70
2022-12-24T15:06:54.655Z,1.48
2022-12-24T15:09:27.506Z,1.58
2022-12-24T15:11:57.060Z,2.20
2022-12-24T15:14:25.689Z,1.55
2022-12-24T15:17:07.495Z,1.80
2022-12-24T15:19:38.821Z,1.80
2022-12-24T15:22:15.992Z,2.08
2022-12-24T15:24:47.460Z,2.40
2022-12-24T15:27:20.370Z,2.10
2022-12-24T15:29:50.203Z,2.30
2022-12-24T15:32:19.484Z,2.20
2022-12-24T15:34:51.099Z,2.70
2022-12-24T15:37:37.741Z,2.30
2022-12-24T15:40:10.050Z,2.25
2022-12-24T15:42:41.659Z,2.50
2022-12-24T15:45:20.244Z,2.83
2022-12-24T15:48:00.715Z,2.55
2022-12-24T15:50:31.783Z,2.63
2022-12-24T15:53:19.843Z,2.80
2022-12-24T15:55:59.900Z,2.38
2022-12-24T15:58:29.645Z,3.03
2022-12-24T16:01:15.391Z,3.13
2022-12-24T16:03:56.745Z,3.25
2022-12-24T16:06:23.530Z,3.58
2022-12-24T16:08:51.927Z,3.80
2022-12-24T16:11:21.474Z,3.30
2022-12-24T16:13:50.825Z,3.78
2022-12-24T16:16:34.334Z,3.30
2022-12-24T16:19:02.476Z,3.65
2022-12-24T16:21:34.140Z,2.95
2022-12-24T16:24:16.835Z,3.20
2022-12-24T16:26:43.421Z,3.25
2022-12-24T16:29:11.787Z,3.45
2022-12-24T16:31:51.867Z,3.20
2022-12-24T16:34:20.676Z,3.28
2022-12-24T16:36:47.279Z,3.33
2022-12-24T16:39:23.388Z,3.42
2022-12-24T16:42:13.215Z,2.70
2022-12-24T16:44:40.264Z,2.97
2022-12-24T16:47:11.892Z,3.40
2022-12-24T16:49:39.208Z,3.40
2022-12-24T16:52:07.510Z,3.17
2022-12-24T16:54:34.055Z,3.22
2022-12-24T16:57:00.568Z,2.88
2022-12-24T16:59:27.202Z,3.25
2022-12-24T17:01:54.419Z,2.88
2022-12-24T17:04:21.144Z,3.33
2022-12-24T17:06:50.300Z,3.47
2022-12-24T17:09:17.777Z,3.10
2022-12-24T17:11:44.378Z,3.15
2022-12-24T17:14:19.700Z,3.13
2022-12-24T17:19:13.287Z,3.10
2022-12-24T17:21:40.844Z,3.85
2022-12-24T17:24:08.757Z,3.00
2022-12-24T17:26:35.639Z,3.20
2022-12-24T17:29:05.164Z,3.40
2022-12-24T17:31:33.334Z,3.28
2022-12-24T17:34:00.900Z,3.00
2022-12-24T17:36:27.444Z,2.97
2022-12-24T17:38:54.061Z,3.53
2022-12-24T17:41:21.132Z,3.17
2022-12-24T17:43:48.470Z,3.17
2022-12-24T17:46:18.296Z,3.50
2022-12-24T17:48:44.946Z,3.13
2022-12-24T17:51:13.656Z,3.17
2022-12-24T17:53:42.090Z,3.08
2022-12-24T17:56:12.315Z,3.25
2022-12-24T17:58:43.961Z,3.67
2022-12-24T18:01:16.742Z,2.88
2022-12-24T18:03:44.836Z,3.17
2022-12-24T18:06:11.963Z,3.78
2022-12-24T18:08:40.171Z,3.55
2022-12-24T18:11:18.288Z,3.38
2022-12-24T18:13:45.224Z,3.50
2022-12-24T18:16:20.572Z,3.30
2022-12-24T18:18:48.929Z,3.00
2022-12-24T18:21:19.375Z,3.58
2022-12-24T18:23:47.707Z,3.35
2022-12-24T18:26:15.972Z,3.00
2022-12-24T18:28:43.346Z,3.53
2022-12-24T18:31:17.526Z,3.00
2022-12-24T18:33:45.779Z,3.78
2022-12-24T18:36:13.516Z,3.70
2022-12-24T18:38:41.061Z,3.67
2022-12-24T18:41:11.760Z,3.30
2022-12-24T18:43:38.364Z,3.10
2022-12-24T18:46:10.180Z,3.13
2022-12-24T18:48:36.758Z,3.40
2022-12-24T18:51:03.952Z,3.42
2022-12-24T18:53:30.629Z,3.97
2022-12-24T18:56:03.611Z,3.03
2022-12-24T18:58:30.247Z,3.63
2022-12-24T19:00:57.365Z,3.45
2022-12-24T19:03:24.337Z,3.60
2022-12-24T19:05:50.888Z,3.30
2022-12-24T19:08:46.907Z,3.20
2022-12-24T19:11:05.512Z,4.07
2022-12-24T19:13:32.391Z,3.45
2022-12-24T19:15:59.791Z,2.97
2022-12-24T19:18:26.888Z,3.42
2022-12-24T19:20:53.444Z,3.28
2022-12-24T19:23:19.985Z,3.40
2022-12-24T19:25:46.585Z,3.53
2022-12-24T19:28:13.119Z,3.30
2022-12-24T19:30:42.970Z,3.78
2022-12-24T19:33:09.821Z,3.60
2022-12-24T19:35:36.844Z,3.67
2022-12-24T19:38:03.495Z,3.40
2022-12-24T19:40:30.187Z,3.78
2022-12-24T19:42:58.103Z,3.35
2022-12-24T19:45:24.799Z,3.85
2022-12-24T19:47:52.754Z,3.75
2022-12-24T19:50:20.349Z,3.47
2022-12-24T19:52:47.397Z,3.50
2022-12-24T19:55:15.170Z,3.75
2022-12-24T19:57:42.898Z,3.60
2022-12-24T20:00:11.457Z,3.70
2022-12-24T20:02:38.024Z,3.90
2022-12-24T20:05:05.614Z,3.83
2022-12-24T20:07:32.204Z,3.72
2022-12-24T20:09:58.826Z,3.60
2022-12-24T20:12:25.984Z,4.63
2022-12-24T20:14:56.289Z,3.63
2022-12-24T20:17:22.936Z,3.85
2022-12-24T20:19:49.531Z,3.60
2022-12-24T20:22:16.122Z,3.10
2022-12-24T20:24:43.111Z,3.70
2022-12-24T20:27:09.801Z,3.88
2022-12-24T20:29:36.344Z,3.78
2022-12-24T20:32:02.881Z,3.92
2022-12-24T20:34:30.364Z,3.78
2022-12-24T20:36:56.916Z,3.80
2022-12-24T20:39:23.498Z,3.90
2022-12-24T20:41:50.037Z,3.70
2022-12-24T20:44:16.660Z,4.60
2022-12-24T20:46:43.669Z,3.80
2022-12-24T20:49:12.007Z,3.47
2022-12-24T20:51:38.605Z,3.90
2022-12-24T20:54:05.677Z,3.60
2022-12-24T20:56:32.290Z,3.88
2022-12-24T20:59:01.212Z,3.92
2022-12-24T21:01:28.669Z,3.67
2022-12-24T21:03:56.820Z,4.10
2022-12-24T21:06:24.843Z,3.75
2022-12-24T21:08:52.916Z,3.58
2022-12-24T21:11:39.201Z,3.80
2022-12-24T21:16:34.260Z,3.33
2022-12-24T21:19:01.638Z,3.20
2022-12-24T21:21:28.876Z,3.50
2022-12-24T21:23:55.908Z,3.45
2022-12-24T21:26:22.627Z,3.45
2022-12-24T21:28:50.407Z,3.97
2022-12-24T21:31:17.892Z,4.10
2022-12-24T21:33:44.675Z,3.50
2022-12-24T21:36:13.368Z,3.70
2022-12-24T21:38:40.934Z,3.72
2022-12-24T21:41:11.167Z,3.67
2022-12-24T21:43:38.216Z,3.67
2022-12-24T21:46:13.155Z,3.33
2022-12-24T21:48:59.012Z,3.37
2022-12-24T21:51:26.993Z,3.72
2022-12-24T21:54:12.362Z,3.40
2022-12-24T21:56:57.590Z,3.70
2022-12-24T21:59:27.221Z,3.88
2022-12-24T22:01:54.924Z,3.55
2022-12-24T22:04:21.753Z,3.85
2022-12-24T22:07:07.065Z,3.70
2022-12-24T22:09:52.226Z,3.80
2022-12-24T22:12:19.524Z,3.83
2022-12-24T22:14:46.065Z,3.47
2022-12-24T22:17:12.660Z,3.70
2022-12-24T22:19:40.311Z,4.00
2022-12-24T22:22:07.224Z,2.97
2022-12-24T22:24:33.792Z,3.47
2022-12-24T22:27:00.806Z,4.00
2022-12-24T22:29:27.923Z,3.65
2022-12-24T22:31:55.170Z,3.28
2022-12-24T22:34:21.872Z,3.15
2022-12-24T22:36:48.585Z,3.67
2022-12-24T22:39:15.746Z,3.72
2022-12-24T22:41:42.765Z,3.58
2022-12-24T22:44:10.026Z,3.78
2022-12-24T22:46:36.743Z,3.50
2022-12-24T22:49:03.863Z,3.75
2022-12-24T22:51:30.526Z,3.65
2022-12-24T22:53:57.793Z,3.45
2022-12-24T22:56:24.475Z,3.72
2022-12-24T22:58:55.330Z,3.92
2022-12-24T23:01:35.993Z,3.75
2022-12-24T23:04:03.400Z,3.65
2022-12-24T23:06:30.088Z,4.00
2022-12-24T23:08:57.684Z,3.33
2022-12-24T23:11:24.602Z,3.67
2022-12-24T23:14:09.704Z,3.50
2022-12-24T23:16:36.557Z,3.38
2022-12-24T23:19:06.231Z,3.85
2022-12-24T23:21:33.744Z,3.65
2022-12-24T23:24:01.579Z,3.33
2022-12-24T23:26:29.027Z,3.47
2022-12-24T23:28:56.544Z,3.40
2022-12-24T23:31:24.803Z,3.78
2022-12-24T23:33:52.001Z,3.58
2022-12-24T23:36:18.714Z,3.42
2022-12-24T23:38:46.366Z,3.80
2022-12-24T23:41:13.088Z,3.50
2022-12-24T23:43:40.309Z,3.25
2022-12-24T23:46:07.651Z,3.35
2022-12-24T23:48:34.235Z,3.53
2022-12-24T23:51:12.615Z,3.60
2022-12-24T23:53:39.903Z,3.20
2022-12-24T23:56:07.960Z,3.30
2022-12-24T23:58:34.750Z,3.45
